createdAt,value
2024-01-05T00:00:21.280Z,4.36
2024-01-05T00:00:51.058Z,4.37
2024-01-05T00:01:21.026Z,4.36
2024-01-05T00:01:51.042Z,4.37
2024-01-05T00:02:20.973Z,4.36
2024-01-05T00:02:50.971Z,4.34
2024-01-05T00:03:21.031Z,4.36
2024-01-05T00:03:51.091Z,4.34
2024-01-05T00:04:20.957Z,4.36
2024-01-05T00:04:50.992Z,4.34
2024-01-05T00:05:21.499Z,4.36
2024-01-05T00:05:51.053Z,4.37
2024-01-05T00:06:21.137Z,4.40
2024-01-05T00:06:51.078Z,4.42
2024-01-05T00:07:20.938Z,4.42
2024-01-05T00:07:51.006Z,4.42
2024-01-05T00:08:20.950Z,4.42
2024-01-05T00:08:50.966Z,4.42
2024-01-05T00:09:20.970Z,4.42
2024-01-05T00:09:50.956Z,4.42
2024-01-05T00:10:20.903Z,4.45
2024-01-05T00:10:50.970Z,4.45
2024-01-05T00:11:20.907Z,4.45
2024-01-05T00:11:50.906Z,4.45
2024-01-05T00:12:20.953Z,4.47
2024-01-05T00:12:50.891Z,4.47
2024-01-05T00:13:20.880Z,4.47
2024-01-05T00:13:50.993Z,4.47
2024-01-05T00:14:21.058Z,4.51
2024-01-05T00:14:51.200Z,4.52
2024-01-05T00:15:20.860Z,4.52
2024-01-05T00:15:50.845Z,4.52
2024-01-05T00:16:20.828Z,4.52
2024-01-05T00:16:50.820Z,4.52
2024-01-05T00:17:20.817Z,4.54
2024-01-05T00:17:50.936Z,4.54
2024-01-05T00:18:20.863Z,4.51
2024-01-05T00:18:51.015Z,4.51
2024-01-05T00:19:20.930Z,4.52
2024-01-05T00:19:50.885Z,4.51
2024-01-05T00:20:20.905Z,4.52
2024-01-05T00:20:50.841Z,4.54
2024-01-05T00:21:20.881Z,4.54
2024-01-05T00:21:50.832Z,4.51
2024-01-05T00:22:20.763Z,4.50
2024-01-05T00:22:50.764Z,4.50
2024-01-05T00:23:20.771Z,4.52
2024-01-05T00:23:50.814Z,4.52
2024-01-05T00:24:20.797Z,4.51
2024-01-05T00:24:50.772Z,4.51
2024-01-05T00:25:20.766Z,4.51
2024-01-05T00:25:50.758Z,4.50
2024-01-05T00:26:20.769Z,4.50
2024-01-05T00:26:50.826Z,4.50
2024-01-05T00:27:20.746Z,4.50
2024-01-05T00:27:50.872Z,4.50
2024-01-05T00:28:21.506Z,4.51
2024-01-05T00:28:50.723Z,4.48
2024-01-05T00:29:20.694Z,4.48
2024-01-05T00:29:50.757Z,4.50
2024-01-05T00:30:20.828Z,4.47
2024-01-05T00:30:50.752Z,4.44
2024-01-05T00:31:20.803Z,4.42
2024-01-05T00:31:50.693Z,4.41
2024-01-05T00:32:20.689Z,4.40
2024-01-05T00:32:50.820Z,4.37
2024-01-05T00:33:20.788Z,4.37
2024-01-05T00:33:50.806Z,4.40
2024-01-05T00:34:20.797Z,4.40
2024-01-05T00:34:50.775Z,4.42
2024-01-05T00:35:20.657Z,4.40
2024-01-05T00:35:50.733Z,4.41
2024-01-05T00:36:20.721Z,4.37
2024-01-05T00:36:50.676Z,4.40
2024-01-05T00:37:20.658Z,4.40
2024-01-05T00:37:50.693Z,4.41
2024-01-05T00:38:20.648Z,4.40
2024-01-05T00:38:50.763Z,4.42
2024-01-05T00:39:20.655Z,4.44
2024-01-05T00:39:50.626Z,4.48
2024-01-05T00:40:20.677Z,4.48
2024-01-05T00:40:50.608Z,4.50
2024-01-05T00:41:20.594Z,4.50
2024-01-05T00:41:50.742Z,4.50
2024-01-05T00:42:20.805Z,4.48
2024-01-05T00:42:50.596Z,4.44
2024-01-05T00:43:20.602Z,4.44
2024-01-05T00:43:50.584Z,4.42
2024-01-05T00:44:20.911Z,4.42
2024-01-05T00:44:50.650Z,4.37
2024-01-05T00:45:20.610Z,4.36
2024-01-05T00:45:50.588Z,4.34
2024-01-05T00:46:20.676Z,4.36
2024-01-05T00:46:50.600Z,4.33
2024-01-05T00:47:20.594Z,4.32
2024-01-05T00:47:50.638Z,4.30
2024-01-05T00:48:20.691Z,4.29
2024-01-05T00:48:50.638Z,4.26
2024-01-05T00:49:20.582Z,4.27
2024-01-05T00:49:50.646Z,4.26
2024-01-05T00:50:20.553Z,4.27
2024-01-05T00:50:50.530Z,4.29
2024-01-05T00:51:20.558Z,4.29
2024-01-05T00:51:50.498Z,4.29
2024-01-05T00:52:20.497Z,4.29
2024-01-05T00:52:50.509Z,4.29
2024-01-05T00:53:20.494Z,4.26
2024-01-05T00:53:50.543Z,4.26
2024-01-05T00:54:20.636Z,4.26
2024-01-05T00:54:50.511Z,4.26
2024-01-05T00:55:20.477Z,4.23
2024-01-05T00:55:50.583Z,4.22
2024-01-05T00:56:20.682Z,4.24
2024-01-05T00:56:50.505Z,4.23
2024-01-05T00:57:20.501Z,4.22
2024-01-05T00:57:50.494Z,4.23
2024-01-05T00:58:20.479Z,4.23
2024-01-05T00:58:50.436Z,4.22
2024-01-05T00:59:20.461Z,4.20
2024-01-05T00:59:50.515Z,4.18
2024-01-05T01:00:20.565Z,4.16
2024-01-05T01:00:50.553Z,4.18
2024-01-05T01:01:20.466Z,4.18
2024-01-05T01:01:50.415Z,4.16
2024-01-05T01:02:20.406Z,4.18
2024-01-05T01:02:50.488Z,4.22
2024-01-05T01:03:20.477Z,4.22
2024-01-05T01:03:50.618Z,4.24
2024-01-05T01:04:20.658Z,4.26
2024-01-05T01:04:50.499Z,4.26
2024-01-05T01:05:20.428Z,4.26
2024-01-05T01:05:50.398Z,4.29
2024-01-05T01:06:20.401Z,4.30
2024-01-05T01:06:50.361Z,4.30
2024-01-05T01:07:20.331Z,4.32
2024-01-05T01:07:50.342Z,4.34
2024-01-05T01:08:20.353Z,4.37
2024-01-05T01:08:50.362Z,4.40
2024-01-05T01:09:20.373Z,4.41
2024-01-05T01:09:50.467Z,4.44
2024-01-05T01:10:20.575Z,4.45
2024-01-05T01:10:50.327Z,4.47
2024-01-05T01:11:20.311Z,4.48
2024-01-05T01:11:50.340Z,4.48
2024-01-05T01:12:20.390Z,4.51
2024-01-05T01:12:50.293Z,4.52
2024-01-05T01:13:20.319Z,4.54
2024-01-05T01:13:50.281Z,4.54
2024-01-05T01:14:20.269Z,4.55
2024-01-05T01:14:50.347Z,4.55
2024-01-05T01:15:20.334Z,4.58
2024-01-05T01:15:50.313Z,4.58
2024-01-05T01:16:20.254Z,4.55
2024-01-05T01:16:50.263Z,4.58
2024-01-05T01:17:20.266Z,4.55
2024-01-05T01:17:50.347Z,4.58
2024-01-05T01:18:20.385Z,4.58
2024-01-05T01:18:50.430Z,4.54
2024-01-05T01:19:21.137Z,4.51
2024-01-05T01:19:50.231Z,4.50
2024-01-05T01:20:20.230Z,4.50
2024-01-05T01:20:50.254Z,4.48
2024-01-05T01:21:20.256Z,4.50
2024-01-05T01:21:50.217Z,4.50
2024-01-05T01:22:20.201Z,4.51
2024-01-05T01:22:50.184Z,4.52
2024-01-05T01:23:20.203Z,4.52
2024-01-05T01:23:50.342Z,4.54
2024-01-05T01:24:20.473Z,4.54
2024-01-05T01:24:50.194Z,4.55
2024-01-05T01:25:20.218Z,4.55
2024-01-05T01:25:50.219Z,4.54
2024-01-05T01:26:20.154Z,4.59
2024-01-05T01:26:50.182Z,4.59
2024-01-05T01:27:20.173Z,4.59
2024-01-05T01:27:50.164Z,4.60
2024-01-05T01:28:20.153Z,4.60
2024-01-05T01:28:50.141Z,4.60
2024-01-05T01:29:20.135Z,4.60
2024-01-05T01:29:50.134Z,4.60
2024-01-05T01:30:20.258Z,4.62
2024-01-05T01:30:50.426Z,4.62
2024-01-05T01:31:20.124Z,4.63
2024-01-05T01:31:50.111Z,4.63
2024-01-05T01:32:20.089Z,4.66
2024-01-05T01:32:50.247Z,4.69
2024-01-05T01:33:20.200Z,4.67
2024-01-05T01:33:50.176Z,4.69
2024-01-05T01:34:20.198Z,4.72
2024-01-05T01:34:50.118Z,4.72
2024-01-05T01:35:20.068Z,4.72
2024-01-05T01:35:50.071Z,4.72
2024-01-05T01:36:20.099Z,4.67
2024-01-05T01:36:50.072Z,4.65
2024-01-05T01:37:20.057Z,4.65
2024-01-05T01:37:50.200Z,4.63
2024-01-05T01:38:20.333Z,4.65
2024-01-05T01:38:50.051Z,4.62
2024-01-05T01:39:20.066Z,4.62
2024-01-05T01:39:50.038Z,4.62
2024-01-05T01:40:20.048Z,4.62
2024-01-05T01:40:50.060Z,4.63
2024-01-05T01:41:20.016Z,4.65
2024-01-05T01:41:50.062Z,4.63
2024-01-05T01:42:20.103Z,4.65
2024-01-05T01:42:50.049Z,4.65
2024-01-05T01:43:20.033Z,4.65
2024-01-05T01:43:53.314Z,4.62
2024-01-05T01:44:20.000Z,4.60
2024-01-05T01:44:50.031Z,4.63
2024-01-05T01:45:20.518Z,4.63
2024-01-05T01:45:49.974Z,4.65
2024-01-05T01:46:19.959Z,4.67
2024-01-05T01:46:49.987Z,4.66
2024-01-05T01:47:19.949Z,4.65
2024-01-05T01:47:50.254Z,4.63
2024-01-05T01:48:20.095Z,4.63
2024-01-05T01:48:50.120Z,4.63
2024-01-05T01:49:20.041Z,4.63
2024-01-05T01:49:50.114Z,4.65
2024-01-05T01:50:19.953Z,4.65
2024-01-05T01:50:49.973Z,4.65
2024-01-05T01:51:19.918Z,4.66
2024-01-05T01:51:50.024Z,4.66
2024-01-05T01:52:20.114Z,4.66
2024-01-05T01:52:49.908Z,4.66
2024-01-05T01:53:19.899Z,4.66
2024-01-05T01:53:49.944Z,4.67
2024-01-05T01:54:19.957Z,4.67
2024-01-05T01:54:49.902Z,4.66
2024-01-05T01:55:19.880Z,4.70
2024-01-05T01:55:49.861Z,4.69
2024-01-05T01:56:19.888Z,4.66
2024-01-05T01:56:49.895Z,4.67
2024-01-05T01:57:20.003Z,4.67
2024-01-05T01:57:49.865Z,4.66
2024-01-05T01:58:19.838Z,4.66
2024-01-05T01:58:49.853Z,4.66
2024-01-05T01:59:19.858Z,4.65
2024-01-05T01:59:49.997Z,4.62
2024-01-05T02:00:19.904Z,4.62
2024-01-05T02:00:49.922Z,4.63
2024-01-05T02:01:19.896Z,4.62
2024-01-05T02:01:49.821Z,4.62
2024-01-05T02:02:19.813Z,4.63
2024-01-05T02:02:49.832Z,4.63
2024-01-05T02:03:19.933Z,4.65
2024-01-05T02:03:49.836Z,4.65
2024-01-05T02:04:20.082Z,4.67
2024-01-05T02:04:49.850Z,4.70
2024-01-05T02:05:19.815Z,4.72
2024-01-05T02:05:49.945Z,4.73
2024-01-05T02:06:19.963Z,4.73
2024-01-05T02:06:49.770Z,4.78
2024-01-05T02:07:19.785Z,4.78
2024-01-05T02:07:49.757Z,4.78
2024-01-05T02:08:19.762Z,4.80
2024-01-05T02:08:49.771Z,4.78
2024-01-05T02:09:19.824Z,4.80
2024-01-05T02:09:49.808Z,4.80
2024-01-05T02:10:19.747Z,4.84
2024-01-05T02:10:49.719Z,4.82
2024-01-05T02:11:19.724Z,4.85
2024-01-05T02:11:49.840Z,4.84
2024-01-05T02:12:19.776Z,4.85
2024-01-05T02:12:49.716Z,4.85
2024-01-05T02:13:19.702Z,4.84
2024-01-05T02:13:49.688Z,4.85
2024-01-05T02:14:19.719Z,4.84
2024-01-05T02:14:49.702Z,4.82
2024-01-05T02:15:19.793Z,4.82
2024-01-05T02:15:49.698Z,4.82
2024-01-05T02:16:19.681Z,4.82
2024-01-05T02:16:49.713Z,4.84
2024-01-05T02:17:19.721Z,4.84
2024-01-05T02:17:49.808Z,4.85
2024-01-05T02:18:19.922Z,4.86
2024-01-05T02:18:49.726Z,4.85
2024-01-05T02:19:19.816Z,4.84
2024-01-05T02:19:49.915Z,4.85
2024-01-05T02:20:19.788Z,4.88
2024-01-05T02:20:49.720Z,4.88
2024-01-05T02:21:19.661Z,4.88
2024-01-05T02:21:49.645Z,4.89
2024-01-05T02:22:19.606Z,4.88
2024-01-05T02:22:49.629Z,4.88
2024-01-05T02:23:19.615Z,4.86
2024-01-05T02:23:49.651Z,4.86
2024-01-05T02:24:19.644Z,4.86
2024-01-05T02:24:49.648Z,4.88
2024-01-05T02:25:19.589Z,4.91
2024-01-05T02:25:49.598Z,4.88
2024-01-05T02:26:19.595Z,4.88
2024-01-05T02:26:49.967Z,4.88
2024-01-05T02:27:19.643Z,4.88
2024-01-05T02:27:49.581Z,4.89
2024-01-05T02:28:19.623Z,4.89
2024-01-05T02:28:49.553Z,4.92
2024-01-05T02:29:19.562Z,4.94
2024-01-05T02:29:50.514Z,4.94
2024-01-05T02:30:19.589Z,4.97
2024-01-05T02:30:49.668Z,4.94
2024-01-05T02:31:19.584Z,4.94
2024-01-05T02:31:49.516Z,4.92
2024-01-05T02:32:19.521Z,4.92
2024-01-05T02:32:49.598Z,4.91
2024-01-05T02:33:19.686Z,4.89
2024-01-05T02:33:49.738Z,4.88
2024-01-05T02:34:20.020Z,4.88
2024-01-05T02:34:49.552Z,4.85
2024-01-05T02:35:19.476Z,4.85
2024-01-05T02:35:49.490Z,4.88
2024-01-05T02:36:19.525Z,4.86
2024-01-05T02:36:49.497Z,4.86
2024-01-05T02:37:19.485Z,4.85
2024-01-05T02:37:49.509Z,4.88
2024-01-05T02:38:19.471Z,4.89
2024-01-05T02:38:49.488Z,4.91
2024-01-05T02:39:19.485Z,4.88
2024-01-05T02:39:49.440Z,4.88
2024-01-05T02:40:19.453Z,4.89
2024-01-05T02:40:49.440Z,4.88
2024-01-05T02:41:19.454Z,4.86
2024-01-05T02:41:49.454Z,4.85
2024-01-05T02:42:19.488Z,4.84
2024-01-05T02:42:49.422Z,4.82
2024-01-05T02:43:19.402Z,4.78
2024-01-05T02:43:49.443Z,4.80
2024-01-05T02:44:19.397Z,4.78
2024-01-05T02:44:49.417Z,4.75
2024-01-05T02:45:19.433Z,4.77
2024-01-05T02:45:49.432Z,4.73
2024-01-05T02:46:19.409Z,4.72
2024-01-05T02:46:49.383Z,4.70
2024-01-05T02:47:19.373Z,4.70
2024-01-05T02:47:49.556Z,4.70
2024-01-05T02:48:19.731Z,4.73
2024-01-05T02:48:50.164Z,4.73
2024-01-05T02:49:19.498Z,4.72
2024-01-05T02:49:49.493Z,4.73
2024-01-05T02:50:19.350Z,4.73
2024-01-05T02:50:49.360Z,4.73
2024-01-05T02:51:19.428Z,4.72
2024-01-05T02:51:49.482Z,4.73
2024-01-05T02:52:19.333Z,4.72
2024-01-05T02:52:49.324Z,4.73
2024-01-05T02:53:19.318Z,4.73
2024-01-05T02:53:49.325Z,4.72
2024-01-05T02:54:19.349Z,4.70
2024-01-05T02:54:49.314Z,4.72
2024-01-05T02:55:19.289Z,4.72
2024-01-05T02:55:49.288Z,4.73
2024-01-05T02:56:19.292Z,4.73
2024-01-05T02:56:49.305Z,4.75
2024-01-05T02:57:19.327Z,4.75
2024-01-05T02:57:49.278Z,4.75
2024-01-05T02:58:19.275Z,4.73
2024-01-05T02:58:50.006Z,4.75
2024-01-05T02:59:19.283Z,4.75
2024-01-05T02:59:49.265Z,4.75
2024-01-05T03:00:19.289Z,4.75
2024-01-05T03:00:49.391Z,4.77
2024-01-05T03:01:19.482Z,4.75
2024-01-05T03:01:49.414Z,4.78
2024-01-05T03:02:19.453Z,4.77
2024-01-05T03:02:49.240Z,4.80
2024-01-05T03:03:19.437Z,4.78
2024-01-05T03:03:51.492Z,4.73
2024-01-05T03:04:19.249Z,4.73
2024-01-05T03:04:49.275Z,4.77
2024-01-05T03:05:19.255Z,4.75
2024-01-05T03:05:49.271Z,4.73
2024-01-05T03:06:19.222Z,4.73
2024-01-05T03:06:49.229Z,4.75
2024-01-05T03:07:19.226Z,4.75
2024-01-05T03:07:49.184Z,4.78
2024-01-05T03:08:19.186Z,4.78
2024-01-05T03:08:49.172Z,4.77
2024-01-05T03:09:19.247Z,4.78
2024-01-05T03:09:49.161Z,4.77
2024-01-05T03:10:19.148Z,4.78
2024-01-05T03:10:49.163Z,4.78
2024-01-05T03:11:19.161Z,4.80
2024-01-05T03:11:49.184Z,4.82
2024-01-05T03:12:19.212Z,4.84
2024-01-05T03:12:50.007Z,4.85
2024-01-05T03:13:19.140Z,4.82
2024-01-05T03:13:49.146Z,4.82
2024-01-05T03:14:19.127Z,4.80
2024-01-05T03:14:49.108Z,4.80
2024-01-05T03:15:19.147Z,4.78
2024-01-05T03:15:49.263Z,4.80
2024-01-05T03:16:19.260Z,4.75
2024-01-05T03:16:49.085Z,4.75
2024-01-05T03:17:19.100Z,4.73
2024-01-05T03:17:49.434Z,4.73
2024-01-05T03:18:19.171Z,4.72
2024-01-05T03:18:49.292Z,4.72
2024-01-05T03:19:19.179Z,4.70
2024-01-05T03:19:49.156Z,4.70
2024-01-05T03:20:19.193Z,4.70
2024-01-05T03:20:49.076Z,4.70
2024-01-05T03:21:19.075Z,4.69
2024-01-05T03:21:49.132Z,4.70
2024-01-05T03:22:19.064Z,4.70
2024-01-05T03:22:49.026Z,4.70
2024-01-05T03:23:19.065Z,4.73
2024-01-05T03:23:49.038Z,4.72
2024-01-05T03:24:19.045Z,4.70
2024-01-05T03:24:49.040Z,4.69
2024-01-05T03:25:19.030Z,4.66
2024-01-05T03:25:48.997Z,4.67
2024-01-05T03:26:18.996Z,4.67
2024-01-05T03:26:48.999Z,4.67
2024-01-05T03:27:19.013Z,4.67
2024-01-05T03:27:48.988Z,4.67
2024-01-05T03:28:19.009Z,4.66
2024-01-05T03:28:48.977Z,4.66
2024-01-05T03:29:18.984Z,4.65
2024-01-05T03:29:49.108Z,4.65
2024-01-05T03:30:19.147Z,4.69
2024-01-05T03:30:49.069Z,4.69
2024-01-05T03:31:19.071Z,4.70
2024-01-05T03:31:48.960Z,4.70
2024-01-05T03:32:18.963Z,4.70
2024-01-05T03:32:49.048Z,4.73
2024-01-05T03:33:19.101Z,4.75
2024-01-05T03:33:49.130Z,4.72
2024-01-05T03:34:19.061Z,4.72
2024-01-05T03:34:48.935Z,4.72
2024-01-05T03:35:18.951Z,4.70
2024-01-05T03:35:48.936Z,4.70
2024-01-05T03:36:19.019Z,4.67
2024-01-05T03:36:48.994Z,4.62
2024-01-05T03:37:18.886Z,4.58
2024-01-05T03:37:48.880Z,4.59
2024-01-05T03:38:18.892Z,4.58
2024-01-05T03:38:48.884Z,4.59
2024-01-05T03:39:18.907Z,4.58
2024-01-05T03:39:48.890Z,4.59
2024-01-05T03:40:18.889Z,4.58
2024-01-05T03:40:48.840Z,4.59
2024-01-05T03:41:18.889Z,4.55
2024-01-05T03:41:48.866Z,4.55
2024-01-05T03:42:18.864Z,4.58
2024-01-05T03:42:48.836Z,4.59
2024-01-05T03:43:21.453Z,4.59
2024-01-05T03:43:48.950Z,4.58
2024-01-05T03:44:18.961Z,4.58
2024-01-05T03:44:48.806Z,4.58
2024-01-05T03:45:18.841Z,4.55
2024-01-05T03:45:48.807Z,4.55
2024-01-05T03:46:18.800Z,4.54
2024-01-05T03:46:48.830Z,4.55
2024-01-05T03:47:18.797Z,4.54
2024-01-05T03:47:48.917Z,4.55
2024-01-05T03:48:18.976Z,4.55
2024-01-05T03:48:48.948Z,4.60
2024-01-05T03:49:18.877Z,4.62
2024-01-05T03:49:48.875Z,4.63
2024-01-05T03:50:18.753Z,4.65
2024-01-05T03:50:48.753Z,4.67
2024-01-05T03:51:18.760Z,4.67
2024-01-05T03:51:48.752Z,4.69
2024-01-05T03:52:18.744Z,4.70
2024-01-05T03:52:48.755Z,4.70
2024-01-05T03:53:18.731Z,4.72
2024-01-05T03:53:48.754Z,4.73
2024-01-05T03:54:18.770Z,4.77
2024-01-05T03:54:48.737Z,4.77
2024-01-05T03:55:18.735Z,4.77
2024-01-05T03:55:48.763Z,4.78
2024-01-05T03:56:18.705Z,4.78
2024-01-05T03:56:48.684Z,4.82
2024-01-05T03:57:18.716Z,4.82
2024-01-05T03:57:48.842Z,4.84
2024-01-05T03:58:18.922Z,4.85
2024-01-05T03:58:48.694Z,4.86
2024-01-05T03:59:18.684Z,4.86
2024-01-05T03:59:48.664Z,4.88
2024-01-05T04:00:18.717Z,4.89
2024-01-05T04:00:48.734Z,4.91
2024-01-05T04:01:18.697Z,4.91
2024-01-05T04:01:48.660Z,4.92
2024-01-05T04:02:18.672Z,4.96
2024-01-05T04:02:48.748Z,4.94
2024-01-05T04:03:18.707Z,4.96
2024-01-05T04:03:48.768Z,4.94
2024-01-05T04:04:18.975Z,4.94
2024-01-05T04:04:48.741Z,4.94
2024-01-05T04:05:18.736Z,4.92
2024-01-05T04:05:48.748Z,4.91
2024-01-05T04:06:18.648Z,4.89
2024-01-05T04:06:49.060Z,4.88
2024-01-05T04:07:18.610Z,4.86
2024-01-05T04:07:48.622Z,4.82
2024-01-05T04:08:18.601Z,4.84
2024-01-05T04:08:48.584Z,4.80
2024-01-05T04:09:18.628Z,4.78
2024-01-05T04:09:48.582Z,4.75
2024-01-05T04:10:18.577Z,4.77
2024-01-05T04:10:48.560Z,4.75
2024-01-05T04:11:18.578Z,4.77
2024-01-05T04:11:48.676Z,4.80
2024-01-05T04:12:18.841Z,4.78
2024-01-05T04:12:48.566Z,4.80
2024-01-05T04:13:18.594Z,4.80
2024-01-05T04:13:48.550Z,4.80
2024-01-05T04:14:18.523Z,4.80
2024-01-05T04:14:48.515Z,4.82
2024-01-05T04:15:18.584Z,4.82
2024-01-05T04:15:48.569Z,4.84
2024-01-05T04:16:18.522Z,4.84
2024-01-05T04:16:48.514Z,4.84
2024-01-05T04:17:18.541Z,4.82
2024-01-05T04:17:48.775Z,4.80
2024-01-05T04:18:18.711Z,4.80
2024-01-05T04:18:48.612Z,4.82
2024-01-05T04:19:18.573Z,4.80
2024-01-05T04:19:48.631Z,4.82
2024-01-05T04:20:18.535Z,4.80
2024-01-05T04:20:48.516Z,4.78
2024-01-05T04:21:18.495Z,4.75
2024-01-05T04:21:48.461Z,4.73
2024-01-05T04:22:18.476Z,4.72
2024-01-05T04:22:48.447Z,4.69
2024-01-05T04:23:18.488Z,4.69
2024-01-05T04:23:48.436Z,4.70
2024-01-05T04:24:18.454Z,4.69
2024-01-05T04:24:48.503Z,4.72
2024-01-05T04:25:18.420Z,4.70
2024-01-05T04:25:48.548Z,4.72
2024-01-05T04:26:18.630Z,4.73
2024-01-05T04:26:48.408Z,4.72
2024-01-05T04:27:18.444Z,4.72
2024-01-05T04:27:48.439Z,4.73
2024-01-05T04:28:18.396Z,4.72
2024-01-05T04:28:48.393Z,4.69
2024-01-05T04:29:18.395Z,4.69
2024-01-05T04:29:48.398Z,4.70
2024-01-05T04:30:18.411Z,4.67
2024-01-05T04:30:48.514Z,4.67
2024-01-05T04:31:18.410Z,4.67
2024-01-05T04:31:48.363Z,4.69
2024-01-05T04:32:18.364Z,4.69
2024-01-05T04:32:48.390Z,4.70
2024-01-05T04:33:18.507Z,4.72
2024-01-05T04:33:48.515Z,4.73
2024-01-05T04:34:18.456Z,4.75
2024-01-05T04:34:48.382Z,4.73
2024-01-05T04:35:18.345Z,4.73
2024-01-05T04:35:48.334Z,4.73
2024-01-05T04:36:18.372Z,4.75
2024-01-05T04:36:48.565Z,4.77
2024-01-05T04:37:18.349Z,4.75
2024-01-05T04:37:48.304Z,4.78
2024-01-05T04:38:18.294Z,4.80
2024-01-05T04:38:48.365Z,4.82
2024-01-05T04:39:18.327Z,4.78
2024-01-05T04:39:48.399Z,4.77
2024-01-05T04:40:18.496Z,4.78
2024-01-05T04:40:48.261Z,4.75
2024-01-05T04:41:18.283Z,4.75
2024-01-05T04:41:48.271Z,4.73
2024-01-05T04:42:18.345Z,4.75
2024-01-05T04:42:48.269Z,4.72
2024-01-05T04:43:18.240Z,4.72
2024-01-05T04:43:48.252Z,4.73
2024-01-05T04:44:18.227Z,4.73
2024-01-05T04:44:48.230Z,4.73
2024-01-05T04:45:18.426Z,4.75
2024-01-05T04:45:48.249Z,4.78
2024-01-05T04:46:18.223Z,4.78
2024-01-05T04:46:48.225Z,4.80
2024-01-05T04:47:18.202Z,4.80
2024-01-05T04:47:48.269Z,4.82
2024-01-05T04:48:18.286Z,4.84
2024-01-05T04:48:48.278Z,4.85
2024-01-05T04:49:18.291Z,4.84
2024-01-05T04:49:48.290Z,4.85
2024-01-05T04:50:18.225Z,4.88
2024-01-05T04:50:48.204Z,4.89
2024-01-05T04:51:18.241Z,4.91
2024-01-05T04:51:48.432Z,4.91
2024-01-05T04:52:18.156Z,4.89
2024-01-05T04:52:48.195Z,4.91
2024-01-05T04:53:18.150Z,4.89
2024-01-05T04:53:48.296Z,4.91
2024-01-05T04:54:18.404Z,4.91
2024-01-05T04:54:48.128Z,4.91
2024-01-05T04:55:18.200Z,4.96
2024-01-05T04:55:48.126Z,4.96
2024-01-05T04:56:18.113Z,4.96
2024-01-05T04:56:48.114Z,4.96
2024-01-05T04:57:18.140Z,4.96
2024-01-05T04:57:48.137Z,4.99
2024-01-05T04:58:18.094Z,4.99
2024-01-05T04:58:48.092Z,4.99
2024-01-05T04:59:18.086Z,4.99
2024-01-05T04:59:48.084Z,4.99
2024-01-05T05:00:18.135Z,4.99
2024-01-05T05:00:48.205Z,4.99
2024-01-05T05:01:18.120Z,5.00
2024-01-05T05:01:48.081Z,4.99
2024-01-05T05:02:18.057Z,4.99
2024-01-05T05:02:48.095Z,4.97
2024-01-05T05:03:18.114Z,5.00
2024-01-05T05:03:48.252Z,4.97
2024-01-05T05:04:18.074Z,4.99
2024-01-05T05:04:48.928Z,4.96
2024-01-05T05:05:18.064Z,4.91
2024-01-05T05:05:49.391Z,4.91
2024-01-05T05:06:18.027Z,4.86
2024-01-05T05:06:48.033Z,4.84
2024-01-05T05:07:18.012Z,4.84
2024-01-05T05:07:48.129Z,4.80
2024-01-05T05:08:18.209Z,4.80
2024-01-05T05:08:48.014Z,4.78
2024-01-05T05:09:18.078Z,4.75
2024-01-05T05:09:48.014Z,4.77
2024-01-05T05:10:18.011Z,4.80
2024-01-05T05:10:48.040Z,4.80
2024-01-05T05:11:17.992Z,4.80
2024-01-05T05:11:47.976Z,4.77
2024-01-05T05:12:17.977Z,4.77
2024-01-05T05:12:47.961Z,4.73
2024-01-05T05:13:17.986Z,4.73
2024-01-05T05:13:47.954Z,4.70
2024-01-05T05:14:17.965Z,4.73
2024-01-05T05:14:47.946Z,4.73
2024-01-05T05:15:17.973Z,4.73
2024-01-05T05:15:47.974Z,4.72
2024-01-05T05:16:17.962Z,4.72
2024-01-05T05:16:47.963Z,4.69
2024-01-05T05:17:17.935Z,4.70
2024-01-05T05:17:47.970Z,4.67
2024-01-05T05:18:18.082Z,4.67
2024-01-05T05:18:48.025Z,4.65
2024-01-05T05:19:18.106Z,4.65
2024-01-05T05:19:48.043Z,4.63
2024-01-05T05:20:17.899Z,4.63
2024-01-05T05:20:47.929Z,4.62
2024-01-05T05:21:17.907Z,4.62
2024-01-05T05:21:48.028Z,4.60
2024-01-05T05:22:18.061Z,4.60
2024-01-05T05:22:47.861Z,4.58
2024-01-05T05:23:17.859Z,4.58
2024-01-05T05:23:47.861Z,4.52
2024-01-05T05:24:17.915Z,4.52
2024-01-05T05:24:47.840Z,4.51
2024-01-05T05:25:17.848Z,4.51
2024-01-05T05:25:47.838Z,4.51
2024-01-05T05:26:17.846Z,4.51
2024-01-05T05:26:47.816Z,4.52
2024-01-05T05:27:17.906Z,4.52
2024-01-05T05:27:47.823Z,4.54
2024-01-05T05:28:17.812Z,4.54
2024-01-05T05:28:47.825Z,4.54
2024-01-05T05:29:17.798Z,4.52
2024-01-05T05:29:47.802Z,4.51
2024-01-05T05:30:17.873Z,4.50
2024-01-05T05:30:47.880Z,4.51
2024-01-05T05:31:17.907Z,4.48
2024-01-05T05:31:48.042Z,4.47
2024-01-05T05:32:17.815Z,4.47
2024-01-05T06:07:38.544Z,4.51
2024-01-05T06:08:09.516Z,4.50
2024-01-05T06:08:39.519Z,4.48
2024-01-05T06:09:09.515Z,4.48
2024-01-05T06:09:39.536Z,4.50
2024-01-05T06:10:09.490Z,4.47
2024-01-05T06:10:39.497Z,4.50
2024-01-05T06:11:09.484Z,4.50
2024-01-05T06:11:39.525Z,4.52
2024-01-05T06:12:09.499Z,4.54
2024-01-05T06:12:39.534Z,4.54
2024-01-05T06:13:09.490Z,4.55
2024-01-05T06:13:39.475Z,4.55
2024-01-05T06:14:09.464Z,4.58
2024-01-05T06:14:39.523Z,4.55
2024-01-05T06:15:09.464Z,4.58
2024-01-05T06:15:39.570Z,4.58
2024-01-05T06:16:09.436Z,4.58
2024-01-05T06:16:39.425Z,4.58
2024-01-05T06:17:09.448Z,4.55
2024-01-05T06:17:39.519Z,4.59
2024-01-05T06:18:09.555Z,4.59
2024-01-05T06:18:39.624Z,4.60
2024-01-05T06:19:09.446Z,4.59
2024-01-05T06:19:39.540Z,4.60
2024-01-05T06:20:10.083Z,4.60
2024-01-05T06:20:39.529Z,4.62
2024-01-05T06:21:09.563Z,4.65
2024-01-05T06:21:39.394Z,4.69
2024-01-05T06:22:09.379Z,4.69
2024-01-05T06:22:39.396Z,4.72
2024-01-05T06:23:09.472Z,4.73
2024-01-05T06:23:39.346Z,4.70
2024-01-05T06:24:09.403Z,4.70
2024-01-05T06:24:39.420Z,4.73
2024-01-05T06:25:09.345Z,4.70
2024-01-05T06:25:39.365Z,4.72
2024-01-05T06:26:09.330Z,4.73
2024-01-05T06:26:39.335Z,4.72
2024-01-05T06:27:09.353Z,4.70
2024-01-05T06:27:39.770Z,4.70
2024-01-05T06:28:09.457Z,4.72
2024-01-05T06:28:39.360Z,4.72
2024-01-05T06:29:09.315Z,4.72
2024-01-05T06:29:39.289Z,4.73
2024-01-05T06:30:09.338Z,4.73
2024-01-05T06:30:39.458Z,4.75
2024-01-05T06:31:09.365Z,4.75
2024-01-05T06:31:39.320Z,4.75
2024-01-05T06:32:09.282Z,4.75
2024-01-05T06:32:39.430Z,4.77
2024-01-05T06:33:09.432Z,4.78
2024-01-05T06:33:39.366Z,4.78
2024-01-05T06:34:09.381Z,4.82
2024-01-05T06:34:39.491Z,4.82
2024-01-05T06:35:09.469Z,4.85
2024-01-05T06:35:39.233Z,4.86
2024-01-05T06:36:09.274Z,4.88
2024-01-05T06:36:39.329Z,4.88
2024-01-05T06:37:09.225Z,4.88
2024-01-05T06:37:39.213Z,4.88
2024-01-05T06:38:09.205Z,4.88
2024-01-05T06:38:39.205Z,4.88
2024-01-05T06:39:09.293Z,4.91
2024-01-05T06:39:39.314Z,4.92
2024-01-05T06:40:09.201Z,4.92
2024-01-05T06:40:39.188Z,4.92
2024-01-05T06:41:09.225Z,4.94
2024-01-05T06:41:39.309Z,4.92
2024-01-05T06:42:09.531Z,4.92
2024-01-05T06:42:39.201Z,4.94
2024-01-05T06:43:09.190Z,4.96
2024-01-05T06:43:39.169Z,4.97
2024-01-05T06:44:09.188Z,4.96
2024-01-05T06:44:39.199Z,4.97
2024-01-05T06:45:09.221Z,4.97
2024-01-05T06:45:39.242Z,4.99
2024-01-05T06:46:09.135Z,4.99
2024-01-05T06:46:39.132Z,5.02
2024-01-05T06:47:09.124Z,5.00
2024-01-05T06:47:39.158Z,5.03
2024-01-05T06:48:09.248Z,5.02
2024-01-05T06:48:39.415Z,5.02
2024-01-05T06:49:09.591Z,5.04
2024-01-05T06:49:39.306Z,5.06
2024-01-05T06:50:09.284Z,5.07
2024-01-05T06:50:39.284Z,5.07
2024-01-05T06:51:09.151Z,5.07
2024-01-05T06:51:39.271Z,5.10
2024-01-05T06:52:09.085Z,5.09
2024-01-05T06:52:39.072Z,5.10
2024-01-05T06:53:09.064Z,5.12
2024-01-05T06:53:39.696Z,5.12
2024-01-05T06:54:09.136Z,5.13
2024-01-05T06:54:39.084Z,5.15
2024-01-05T06:55:09.047Z,5.17
2024-01-05T06:55:39.081Z,5.17
2024-01-05T06:56:09.044Z,5.15
2024-01-05T06:56:38.973Z,5.15
2024-01-05T06:57:09.094Z,5.15
2024-01-05T06:57:39.049Z,5.15
2024-01-05T06:58:08.965Z,5.15
2024-01-05T06:58:38.965Z,5.15
2024-01-05T06:59:08.952Z,5.13
2024-01-05T06:59:38.994Z,5.13
2024-01-05T07:00:09.029Z,5.13
2024-01-05T07:00:39.311Z,5.13
2024-01-05T07:01:08.974Z,5.13
2024-01-05T07:01:38.924Z,5.12
2024-01-05T07:02:08.920Z,5.12
2024-01-05T07:02:39.149Z,5.13
2024-01-05T07:03:09.564Z,5.15
2024-01-05T07:03:39.098Z,5.17
2024-01-05T07:04:08.974Z,5.15
2024-01-05T07:04:38.906Z,5.17
2024-01-05T07:05:09.736Z,5.18
2024-01-05T07:05:39.041Z,5.18
2024-01-05T07:06:08.961Z,5.17
2024-01-05T07:06:38.894Z,5.21
2024-01-05T07:07:08.857Z,5.22
2024-01-05T07:07:38.873Z,5.22
2024-01-05T07:08:08.879Z,5.25
2024-01-05T07:08:38.856Z,5.22
2024-01-05T07:09:08.912Z,5.25
2024-01-05T07:09:38.885Z,5.25
2024-01-05T07:10:08.835Z,5.27
2024-01-05T07:10:38.860Z,5.28
2024-01-05T07:11:08.815Z,5.28
2024-01-05T07:11:38.845Z,5.30
2024-01-05T07:12:08.856Z,5.31
2024-01-05T07:12:38.855Z,5.30
2024-01-05T07:13:08.827Z,5.31
2024-01-05T07:13:38.804Z,5.33
2024-01-05T07:14:08.797Z,5.33